Time;durP1;ratioP1;P1;durP2;ratioP2;P2;SDS_P1;SDS_P2;PMS_P1;PMS_P2;Temp;Humidity;BMP_temperature;BMP_pressure;BME280_temperature;BME280_humidity;BME280_pressure;Samples;Min_cycle;Max_cycle;Signal;HPM_P1;HPM_P2
2023/04/26 00:00:18;;;;;;;8.23;3.45;;;3.80;99.90;;;;;;5056818;28;20072;-59
2023/04/26 00:02:44;;;;;;;10.80;3.72;;;3.80;99.90;;;;;;5054462;28;20029;-60
2023/04/26 00:05:10;;;;;;;5.03;3.28;;;3.80;99.90;;;;;;5055369;28;20036;-60
2023/04/26 00:07:37;;;;;;;4.82;3.35;;;3.90;99.90;;;;;;5055087;28;20033;-61
2023/04/26 00:10:04;;;;;;;7.90;3.55;;;3.90;99.90;;;;;;5055201;28;20029;-61
2023/04/26 00:12:30;;;;;;;4.40;3.90;;;4.00;99.90;;;;;;5058500;28;20187;-60
2023/04/26 00:14:55;;;;;;;8.32;4.13;;;4.00;99.90;;;;;;5057439;28;20116;-59
2023/04/26 00:17:23;;;;;;;6.25;3.40;;;4.10;99.90;;;;;;5056201;28;20032;-61
2023/04/26 00:19:49;;;;;;;7.13;3.80;;;4.10;99.90;;;;;;5042207;28;20029;-59
2023/04/26 00:22:15;;;;;;;6.50;3.85;;;4.10;99.90;;;;;;5055919;28;20033;-60
2023/04/26 00:24:42;;;;;;;4.97;3.63;;;4.10;99.90;;;;;;5055844;28;20083;-62
2023/04/26 00:27:09;;;;;;;8.70;3.78;;;4.20;99.90;;;;;;5055301;28;20056;-59
2023/04/26 00:29:36;;;;;;;6.28;3.47;;;4.20;99.90;;;;;;5057560;28;20424;-59
2023/04/26 00:32:02;;;;;;;5.97;4.53;;;4.20;99.90;;;;;;5056971;28;20079;-60
2023/04/26 00:34:37;;;;;;;6.80;4.38;;;4.20;99.90;;;;;;5054682;28;20104;-60
2023/04/26 00:37:04;;;;;;;7.85;4.10;;;4.20;99.90;;;;;;5053676;28;20265;-59
2023/04/26 00:39:30;;;;;;;7.65;4.20;;;4.20;99.90;;;;;;5040496;28;20128;-59
2023/04/26 00:41:56;;;;;;;8.10;4.60;;;4.20;99.90;;;;;;5054473;28;20124;-59
2023/04/26 00:44:22;;;;;;;7.05;4.10;;;4.20;99.90;;;;;;5058406;28;20499;-59
2023/04/26 00:46:50;;;;;;;7.57;4.18;;;4.20;99.90;;;;;;5059817;28;20023;-60
2023/04/26 00:49:17;;;;;;;9.30;3.75;;;4.10;99.90;;;;;;5050108;28;20088;-59
2023/04/26 00:51:44;;;;;;;8.88;4.93;;;4.10;99.90;;;;;;5055606;28;20021;-59
2023/04/26 00:54:10;;;;;;;8.32;3.88;;;4.20;99.90;;;;;;5054279;28;20454;-59
2023/04/26 00:56:37;;;;;;;5.80;5.20;;;4.10;99.90;;;;;;5056066;28;20029;-61
2023/04/26 00:59:03;;;;;;;16.67;5.68;;;4.20;99.90;;;;;;5056353;28;20021;-60
2023/04/26 01:01:29;;;;;;;11.43;4.72;;;4.20;99.90;;;;;;5059712;28;20017;-60
2023/04/26 01:03:55;;;;;;;6.50;4.75;;;4.20;99.90;;;;;;5053229;28;20032;-58
2023/04/26 01:06:21;;;;;;;10.95;4.55;;;4.20;99.90;;;;;;5059292;28;20076;-59
2023/04/26 01:08:47;;;;;;;10.73;5.55;;;4.20;99.90;;;;;;5055936;28;20025;-60
2023/04/26 01:11:14;;;;;;;9.20;5.10;;;4.30;99.90;;;;;;5059734;28;20060;-60
2023/04/26 01:13:41;;;;;;;9.68;4.80;;;4.40;99.90;;;;;;5058561;28;20891;-59
2023/04/26 01:16:07;;;;;;;11.82;4.65;;;4.40;99.90;;;;;;5057278;28;20040;-59
2023/04/26 01:18:34;;;;;;;8.25;4.47;;;4.50;99.90;;;;;;5063073;28;20079;-59
2023/04/26 01:20:59;;;;;;;9.10;5.07;;;4.50;99.90;;;;;;5059309;28;20028;-60
2023/04/26 01:23:25;;;;;;;8.60;3.95;;;4.60;99.90;;;;;;5054871;28;20033;-60
2023/04/26 01:25:52;;;;;;;6.05;3.70;;;4.60;99.90;;;;;;5059515;28;20052;-60
2023/04/26 01:28:18;;;;;;;7.32;3.47;;;4.60;99.90;;;;;;5060654;28;20504;-59
2023/04/26 01:30:43;;;;;;;5.57;3.67;;;4.60;99.90;;;;;;5059946;28;20029;-60
2023/04/26 01:33:09;;;;;;;7.75;3.28;;;4.60;99.90;;;;;;5058564;28;20025;-59
2023/04/26 01:35:35;;;;;;;11.57;3.83;;;4.60;99.90;;;;;;5054840;28;20375;-59
2023/04/26 01:38:00;;;;;;;6.90;2.80;;;4.70;99.90;;;;;;5059387;28;20060;-60
2023/04/26 01:40:26;;;;;;;3.90;2.85;;;4.70;99.90;;;;;;5056630;28;20055;-59
2023/04/26 01:42:51;;;;;;;4.15;2.88;;;4.70;99.90;;;;;;5057636;28;20024;-59
2023/04/26 01:45:17;;;;;;;10.07;3.25;;;4.80;99.90;;;;;;5057960;28;20138;-61
2023/04/26 01:47:43;;;;;;;6.82;2.97;;;4.80;99.90;;;;;;5056797;28;20612;-59
2023/04/26 01:50:09;;;;;;;5.80;2.97;;;4.80;99.90;;;;;;5057080;28;20083;-61
2023/04/26 01:52:35;;;;;;;5.15;2.78;;;4.80;99.90;;;;;;5048334;28;20033;-59
2023/04/26 01:55:00;;;;;;;5.07;2.85;;;4.80;99.90;;;;;;5060658;28;20024;-62
2023/04/26 01:57:26;;;;;;;8.07;3.55;;;4.70;99.90;;;;;;5059549;28;20029;-59
2023/04/26 01:59:53;;;;;;;6.15;3.95;;;4.70;99.90;;;;;;5059202;28;20037;-59
2023/04/26 02:02:19;;;;;;;6.05;3.65;;;4.70;99.90;;;;;;5059738;28;20090;-59
2023/04/26 02:04:44;;;;;;;9.35;3.65;;;4.70;99.90;;;;;;5054975;28;20473;-60
2023/04/26 02:07:10;;;;;;;8.68;3.42;;;4.60;99.90;;;;;;5057684;28;20397;-59
2023/04/26 02:09:35;;;;;;;8.05;4.55;;;4.60;99.90;;;;;;5059058;28;20086;-60
2023/04/26 02:12:01;;;;;;;5.57;3.60;;;4.60;99.90;;;;;;5058640;28;20466;-59
2023/04/26 02:14:27;;;;;;;4.55;2.97;;;4.60;99.90;;;;;;5057395;28;20044;-59
2023/04/26 02:16:52;;;;;;;6.10;2.20;;;4.60;99.90;;;;;;5058320;28;20035;-60
2023/04/26 02:19:18;;;;;;;3.42;3.03;;;4.70;99.90;;;;;;5058143;28;20112;-60
2023/04/26 02:21:51;;;;;;;7.78;1.98;;;4.70;99.90;;;;;;5057651;28;20035;-60
2023/04/26 02:24:17;;;;;;;3.63;2.53;;;4.60;99.90;;;;;;5058453;28;20040;-59
2023/04/26 02:26:42;;;;;;;3.08;2.25;;;4.60;99.90;;;;;;5054804;28;20051;-60
2023/04/26 02:29:08;;;;;;;3.28;2.08;;;4.60;99.90;;;;;;5058379;28;20029;-60
2023/04/26 02:31:34;;;;;;;5.65;2.63;;;4.60;99.90;;;;;;5057820;28;20044;-59
2023/04/26 02:34:00;;;;;;;3.25;2.40;;;4.60;99.90;;;;;;5058734;28;20021;-59
2023/04/26 02:36:26;;;;;;;4.25;2.10;;;4.60;99.90;;;;;;5058010;28;20024;-60
2023/04/26 02:38:51;;;;;;;3.97;2.60;;;4.60;99.90;;;;;;5051764;28;20382;-59
2023/04/26 02:41:17;;;;;;;4.28;1.70;;;4.60;99.90;;;;;;5060183;28;20687;-60
2023/04/26 02:43:42;;;;;;;8.75;2.85;;;4.60;99.90;;;;;;5057134;28;20028;-61
2023/04/26 02:46:08;;;;;;;3.28;2.10;;;4.60;99.90;;;;;;5057941;28;20032;-60
2023/04/26 02:48:34;;;;;;;2.40;2.05;;;4.60;99.90;;;;;;5057815;28;20040;-60
2023/04/26 02:51:00;;;;;;;4.70;2.10;;;4.60;99.90;;;;;;5055649;28;20262;-60
2023/04/26 02:53:25;;;;;;;5.00;2.65;;;4.60;99.90;;;;;;5056617;28;20505;-60
2023/04/26 02:55:51;;;;;;;5.80;2.20;;;4.60;99.90;;;;;;5055802;28;20079;-61
2023/04/26 02:58:17;;;;;;;7.82;3.47;;;4.60;99.90;;;;;;5056329;28;20019;-60
2023/04/26 03:00:48;;;;;;;2.67;2.40;;;4.60;99.90;;;;;;5056304;28;20805;-59
2023/04/26 03:03:14;;;;;;;4.65;2.50;;;4.60;99.90;;;;;;5059831;28;20187;-59
2023/04/26 03:05:40;;;;;;;3.47;2.40;;;4.50;99.90;;;;;;5056236;28;20115;-61
2023/04/26 03:08:06;;;;;;;4.32;2.70;;;4.50;99.90;;;;;;5037368;28;20037;-58
2023/04/26 03:10:32;;;;;;;5.03;2.40;;;4.40;99.90;;;;;;5057071;28;20084;-59
2023/04/26 03:12:58;;;;;;;3.85;2.38;;;4.30;99.90;;;;;;5055797;28;20061;-60
2023/04/26 03:15:24;;;;;;;5.13;2.65;;;4.10;99.90;;;;;;5057628;28;20056;-59
2023/04/26 03:17:49;;;;;;;6.85;2.22;;;4.00;99.90;;;;;;5055327;28;20043;-61
2023/04/26 03:20:15;;;;;;;6.65;2.15;;;3.90;99.90;;;;;;5055600;28;20040;-60
2023/04/26 03:22:41;;;;;;;2.67;2.00;;;3.80;99.90;;;;;;5055066;28;20084;-60
2023/04/26 03:25:07;;;;;;;6.82;2.63;;;3.70;99.90;;;;;;5059029;28;20396;-60
2023/04/26 03:27:33;;;;;;;5.20;2.60;;;3.60;99.90;;;;;;5056665;28;20079;-59
2023/04/26 03:29:59;;;;;;;5.00;2.58;;;3.50;99.90;;;;;;5053418;28;20738;-60
2023/04/26 03:32:25;;;;;;;6.03;2.53;;;3.40;99.90;;;;;;5057109;28;20029;-60
2023/04/26 03:34:50;;;;;;;6.47;3.30;;;3.30;99.90;;;;;;5056822;28;20043;-59
2023/04/26 03:37:16;;;;;;;9.55;3.20;;;3.20;99.90;;;;;;5056691;28;20091;-58
2023/04/26 03:39:41;;;;;;;4.53;2.78;;;3.20;99.90;;;;;;5058485;28;20037;-60
2023/04/26 03:42:07;;;;;;;6.03;3.38;;;3.10;99.90;;;;;;5056376;28;20040;-59
2023/04/26 03:44:32;;;;;;;8.90;2.97;;;3.10;99.90;;;;;;5052799;28;20147;-60
2023/04/26 03:46:58;;;;;;;5.20;3.15;;;3.10;99.90;;;;;;5053535;28;20028;-58
2023/04/26 03:49:24;;;;;;;4.82;3.08;;;3.00;99.90;;;;;;5056153;28;20029;-57
2023/04/26 03:51:50;;;;;;;4.57;3.03;;;3.00;99.90;;;;;;5054048;28;20119;-59
2023/04/26 03:54:15;;;;;;;6.88;3.00;;;3.00;99.90;;;;;;5058304;28;20060;-59
2023/04/26 03:56:41;;;;;;;9.07;3.30;;;2.90;99.90;;;;;;5056626;28;20626;-59
2023/04/26 03:59:08;;;;;;;6.05;2.97;;;2.90;99.90;;;;;;5058411;28;20060;-60
2023/04/26 04:01:35;;;;;;;8.00;2.50;;;2.80;99.90;;;;;;5057879;28;20027;-58
2023/04/26 04:04:01;;;;;;;5.05;3.13;;;2.80;99.90;;;;;;5057476;28;20021;-58
2023/04/26 04:06:27;;;;;;;3.83;2.92;;;2.80;99.90;;;;;;5055727;28;20033;-57
2023/04/26 04:08:52;;;;;;;4.45;2.40;;;2.70;99.90;;;;;;5021425;28;20025;-57
2023/04/26 04:11:19;;;;;;;7.03;3.20;;;2.70;99.90;;;;;;5055715;28;20527;-58
2023/04/26 04:13:45;;;;;;;6.88;2.88;;;2.70;99.90;;;;;;5056348;28;20496;-58
2023/04/26 04:16:10;;;;;;;4.43;3.17;;;2.80;99.90;;;;;;5055359;28;20030;-59
2023/04/26 04:18:36;;;;;;;4.97;3.75;;;2.80;99.90;;;;;;5056387;28;20059;-59
2023/04/26 04:21:02;;;;;;;6.75;3.33;;;2.80;99.90;;;;;;5056325;28;20493;-60
2023/04/26 04:23:28;;;;;;;11.93;5.00;;;2.80;99.90;;;;;;5055933;28;20025;-57
2023/04/26 04:25:53;;;;;;;4.28;3.25;;;2.80;99.90;;;;;;5056132;28;20036;-58
2023/04/26 04:28:21;;;;;;;5.90;3.58;;;2.80;99.90;;;;;;5057952;28;20052;-58
2023/04/26 04:30:47;;;;;;;6.18;3.35;;;2.80;99.90;;;;;;5056017;28;20024;-57
2023/04/26 04:33:12;;;;;;;5.38;3.35;;;2.70;99.90;;;;;;5053887;28;20516;-58
2023/04/26 04:35:40;;;;;;;10.32;6.45;;;2.70;99.90;;;;;;5054867;28;20444;-57
2023/04/26 04:38:06;;;;;;;6.97;5.00;;;2.70;99.90;;;;;;5055116;28;20036;-58
2023/04/26 04:40:31;;;;;;;8.75;5.05;;;2.60;99.90;;;;;;5059145;28;20400;-58
2023/04/26 04:42:59;;;;;;;3.92;3.53;;;2.60;99.90;;;;;;5058455;28;20583;-58
2023/04/26 04:45:26;;;;;;;7.32;4.22;;;2.70;99.90;;;;;;5042708;28;20043;-57
2023/04/26 04:47:52;;;;;;;7.43;3.92;;;2.70;99.90;;;;;;5059650;28;20102;-58
2023/04/26 04:50:18;;;;;;;4.25;3.20;;;2.70;99.90;;;;;;5060862;28;20480;-58
2023/04/26 04:52:44;;;;;;;7.43;3.08;;;2.70;99.90;;;;;;5062488;28;20051;-58
2023/04/26 04:55:10;;;;;;;8.07;3.33;;;2.70;99.90;;;;;;5051222;28;20135;-60
2023/04/26 04:57:35;;;;;;;5.93;3.75;;;2.70;99.90;;;;;;5057946;28;20086;-59
2023/04/26 05:00:08;;;;;;;6.75;2.90;;;2.80;99.90;;;;;;5061911;28;20108;-58
2023/04/26 05:02:35;;;;;;;7.50;3.15;;;2.80;99.90;;;;;;5062303;28;20083;-57
2023/04/26 05:05:03;;;;;;;6.50;3.30;;;2.80;99.90;;;;;;5061205;28;20036;-59
2023/04/26 05:07:30;;;;;;;5.57;3.42;;;2.80;99.90;;;;;;5063865;28;20017;-56
2023/04/26 05:09:56;;;;;;;10.13;3.00;;;2.90;99.90;;;;;;5060466;28;20559;-59
2023/04/26 05:12:22;;;;;;;6.47;3.03;;;3.00;99.90;;;;;;5061113;28;20048;-58
2023/04/26 05:14:48;;;;;;;9.73;3.25;;;3.00;99.90;;;;;;5062436;28;20378;-60
2023/04/26 05:17:13;;;;;;;10.48;3.33;;;3.00;99.90;;;;;;5063532;28;20043;-57
2023/04/26 05:19:39;;;;;;;6.45;2.70;;;3.00;99.90;;;;;;5060415;28;20075;-58
2023/04/26 05:22:05;;;;;;;5.65;2.97;;;3.10;99.90;;;;;;5062154;28;20023;-57
2023/04/26 05:24:30;;;;;;;4.78;3.13;;;3.20;99.90;;;;;;5059780;28;20045;-57
2023/04/26 05:27:00;;;;;;;5.40;3.38;;;3.20;99.90;;;;;;5060566;28;20025;-58
2023/04/26 05:29:29;;;;;;;7.57;4.10;;;3.30;99.90;;;;;;5061310;28;20017;-57
2023/04/26 05:31:55;;;;;;;4.32;3.30;;;3.40;99.90;;;;;;5062590;28;20021;-58
2023/04/26 05:34:22;;;;;;;6.78;3.80;;;3.40;99.90;;;;;;5061319;28;20558;-58
2023/04/26 05:36:47;;;;;;;10.07;3.15;;;3.50;99.90;;;;;;5061578;28;20028;-58
2023/04/26 05:39:13;;;;;;;8.55;3.88;;;3.60;99.90;;;;;;5060255;28;20389;-57
2023/04/26 05:41:39;;;;;;;7.72;3.75;;;3.70;99.90;;;;;;5063346;28;20024;-60
2023/04/26 05:44:05;;;;;;;3.90;3.00;;;3.70;99.90;;;;;;5063226;28;20064;-58
2023/04/26 05:46:30;;;;;;;4.72;3.13;;;3.80;99.90;;;;;;5048848;28;20024;-59
2023/04/26 05:48:56;;;;;;;6.38;3.35;;;3.90;99.90;;;;;;5063278;28;20040;-59
2023/04/26 05:51:23;;;;;;;6.28;2.85;;;3.90;99.90;;;;;;5059426;28;20032;-58
2023/04/26 05:53:48;;;;;;;10.60;3.03;;;4.00;99.90;;;;;;5060670;28;20024;-60
2023/04/26 05:56:14;;;;;;;10.13;2.88;;;4.10;99.90;;;;;;5062107;28;20111;-59
2023/04/26 05:58:40;;;;;;;6.72;2.60;;;4.20;99.90;;;;;;5060862;28;20024;-59
2023/04/26 06:01:06;;;;;;;5.80;3.30;;;4.20;99.90;;;;;;5060070;28;20017;-60
2023/04/26 06:03:31;;;;;;;7.63;3.40;;;4.30;99.90;;;;;;5062439;28;20078;-57
2023/04/26 06:05:58;;;;;;;4.53;3.08;;;4.40;99.90;;;;;;5061417;28;20025;-58
2023/04/26 06:08:23;;;;;;;5.65;3.63;;;4.50;99.90;;;;;;5062828;28;20409;-60
2023/04/26 06:10:50;;;;;;;6.38;3.00;;;4.50;99.90;;;;;;5060339;28;20029;-59
2023/04/26 06:13:15;;;;;;;8.30;2.72;;;4.60;99.90;;;;;;5054901;28;20028;-58
2023/04/26 06:15:41;;;;;;;7.35;3.33;;;4.70;99.90;;;;;;5056008;28;20025;-58
2023/04/26 06:18:07;;;;;;;6.90;3.15;;;4.70;99.90;;;;;;5059206;28;20033;-58
2023/04/26 06:20:33;;;;;;;5.53;3.72;;;4.70;99.90;;;;;;5057162;28;20029;-58
2023/04/26 06:22:58;;;;;;;6.88;3.13;;;4.80;99.90;;;;;;5058538;28;20048;-59
2023/04/26 06:25:24;;;;;;;7.50;2.90;;;4.90;99.90;;;;;;5055886;28;20029;-59
2023/04/26 06:27:50;;;;;;;5.05;2.40;;;5.00;99.90;;;;;;5059081;28;20040;-58
2023/04/26 06:30:16;;;;;;;6.00;2.60;;;5.00;99.90;;;;;;5057528;28;20025;-57
2023/04/26 06:32:41;;;;;;;3.83;2.78;;;5.10;99.90;;;;;;5057872;28;20035;-57
2023/04/26 06:35:08;;;;;;;5.28;3.03;;;5.20;99.90;;;;;;5054599;28;20583;-58
2023/04/26 06:37:33;;;;;;;5.60;2.72;;;5.20;99.90;;;;;;5059243;28;20052;-59
2023/04/26 06:40:00;;;;;;;5.85;2.60;;;5.20;99.90;;;;;;5056781;28;20458;-59
2023/04/26 06:42:26;;;;;;;5.18;3.20;;;5.30;99.90;;;;;;5058735;28;20069;-58
2023/04/26 06:44:52;;;;;;;6.18;3.00;;;5.30;99.90;;;;;;5056536;28;20021;-58
2023/04/26 06:47:17;;;;;;;5.82;3.05;;;5.40;99.90;;;;;;5057932;28;20025;-59
2023/04/26 06:49:43;;;;;;;8.43;4.43;;;5.40;99.90;;;;;;5058077;28;20029;-60
2023/04/26 06:52:08;;;;;;;6.22;3.63;;;5.40;99.90;;;;;;5056205;28;20040;-57
2023/04/26 06:54:34;;;;;;;5.75;2.92;;;5.40;99.90;;;;;;5056711;28;20075;-58
2023/04/26 06:57:00;;;;;;;6.35;4.00;;;5.50;99.90;;;;;;5059030;28;20404;-59
2023/04/26 06:59:25;;;;;;;4.28;2.85;;;5.60;99.90;;;;;;5038979;28;20032;-59
2023/04/26 07:01:52;;;;;;;6.30;3.20;;;5.70;99.90;;;;;;5056551;28;20120;-59
2023/04/26 07:04:19;;;;;;;4.20;3.60;;;5.70;99.90;;;;;;5060467;28;20008;-60
2023/04/26 07:06:45;;;;;;;5.95;3.47;;;5.80;99.90;;;;;;5059326;28;20108;-60
2023/04/26 07:09:11;;;;;;;4.72;3.03;;;5.90;99.90;;;;;;5058403;28;20131;-60
2023/04/26 07:11:37;;;;;;;6.28;4.45;;;5.90;99.90;;;;;;5055822;28;20373;-58
2023/04/26 07:14:03;;;;;;;5.50;3.03;;;6.00;99.90;;;;;;5055040;28;20036;-59
2023/04/26 07:16:30;;;;;;;5.55;2.83;;;6.00;99.90;;;;;;5057903;28;20020;-59
2023/04/26 07:18:57;;;;;;;7.68;3.08;;;6.10;99.90;;;;;;5057180;28;20025;-59
2023/04/26 07:21:24;;;;;;;7.45;3.75;;;6.20;99.90;;;;;;5058085;28;20032;-61
2023/04/26 07:23:55;;;;;;;3.75;2.30;;;6.20;99.90;;;;;;5058407;28;20033;-60
2023/04/26 07:26:22;;;;;;;7.45;2.30;;;6.30;99.90;;;;;;5056247;28;20079;-61
2023/04/26 07:28:49;;;;;;;4.10;2.25;;;6.30;99.90;;;;;;5057409;28;20548;-60
2023/04/26 07:31:15;;;;;;;4.68;2.38;;;6.40;99.90;;;;;;5057314;28;20025;-60
2023/04/26 07:33:41;;;;;;;3.65;2.92;;;6.50;99.90;;;;;;5059625;28;20083;-60
2023/04/26 07:36:07;;;;;;;4.40;2.78;;;6.60;99.90;;;;;;5059611;28;20117;-61
2023/04/26 07:38:33;;;;;;;3.55;2.60;;;6.70;99.90;;;;;;5060072;28;20128;-60
2023/04/26 07:41:00;;;;;;;6.57;2.63;;;6.80;99.90;;;;;;5061086;28;20063;-59
2023/04/26 07:43:26;;;;;;;4.65;2.20;;;6.80;99.90;;;;;;5058895;28;20119;-61
2023/04/26 07:45:51;;;;;;;4.07;1.83;;;6.90;99.90;;;;;;5057594;28;20457;-59
2023/04/26 07:48:17;;;;;;;6.30;1.85;;;7.00;99.90;;;;;;5061593;28;20079;-59
2023/04/26 07:50:43;;;;;;;5.72;1.58;;;7.00;99.90;;;;;;5060474;28;20032;-60
2023/04/26 07:53:09;;;;;;;3.00;1.92;;;7.00;98.80;;;;;;5060843;28;20444;-59
2023/04/26 07:55:36;;;;;;;6.15;1.48;;;7.00;97.30;;;;;;5060079;28;20020;-59
2023/04/26 07:58:02;;;;;;;3.08;1.67;;;7.00;96.50;;;;;;5061199;28;20009;-60
2023/04/26 08:00:28;;;;;;;5.60;1.75;;;7.00;96.80;;;;;;5058795;28;20029;-60
2023/04/26 08:02:53;;;;;;;3.10;1.38;;;7.20;96.10;;;;;;5057245;28;20032;-60
2023/04/26 08:05:19;;;;;;;2.80;1.33;;;7.30;96.90;;;;;;5057793;28;20028;-60
2023/04/26 08:07:45;;;;;;;25.30;3.60;;;7.40;92.80;;;;;;5056087;28;20025;-59
2023/04/26 08:10:11;;;;;;;4.00;1.45;;;7.50;93.70;;;;;;5055536;28;20067;-61
2023/04/26 08:12:40;;;;;;;2.97;1.40;;;7.60;93.10;;;;;;5056426;28;20622;-60
2023/04/26 08:15:07;;;;;;;5.28;1.52;;;7.60;92.50;;;;;;5052996;28;20044;-59
2023/04/26 08:17:33;;;;;;;2.90;1.52;;;7.70;92.80;;;;;;5057702;28;20036;-60
2023/04/26 08:19:59;;;;;;;4.50;1.90;;;7.80;93.00;;;;;;5057911;28;20452;-58
2023/04/26 08:22:24;;;;;;;3.40;1.45;;;7.80;91.00;;;;;;5059739;28;20020;-60
2023/04/26 08:24:53;;;;;;;2.85;1.60;;;7.90;90.30;;;;;;5054971;28;20032;-59
2023/04/26 08:27:19;;;;;;;2.67;1.90;;;8.00;89.20;;;;;;5058335;28;20071;-61
2023/04/26 08:29:45;;;;;;;4.50;1.50;;;8.50;87.70;;;;;;5051539;28;20057;-59
2023/04/26 08:32:11;;;;;;;4.38;1.52;;;8.90;87.40;;;;;;5057566;28;20071;-61
2023/04/26 08:34:36;;;;;;;6.50;1.27;;;9.20;81.80;;;;;;5056648;28;20025;-61
2023/04/26 08:37:02;;;;;;;2.47;1.40;;;9.30;81.70;;;;;;5056200;28;20017;-62
2023/04/26 08:39:28;;;;;;;3.30;1.35;;;9.60;79.40;;;;;;5052887;28;20575;-61
2023/04/26 08:41:56;;;;;;;2.88;1.38;;;9.50;75.10;;;;;;5059014;28;20420;-62
2023/04/26 08:44:24;;;;;;;5.45;1.45;;;9.20;73.00;;;;;;5055170;28;20040;-61
2023/04/26 08:47:12;;;;;;;3.17;1.20;;;9.00;73.50;;;;;;5054632;28;20055;-60
2023/04/26 08:49:51;;;;;;;3.58;1.40;;;9.00;76.00;;;;;;5054481;28;20039;-61
2023/04/26 08:52:22;;;;;;;2.65;1.20;;;9.10;77.20;;;;;;5059410;28;20060;-61
2023/04/26 08:54:49;;;;;;;6.75;1.48;;;9.30;78.90;;;;;;5058451;28;20085;-59
2023/04/26 08:57:16;;;;;;;4.72;1.42;;;9.40;75.20;;;;;;5045979;28;20031;-60
2023/04/26 08:59:43;;;;;;;5.47;1.40;;;9.60;78.90;;;;;;5054816;28;20565;-60
2023/04/26 09:02:17;;;;;;;4.00;1.23;;;9.60;75.20;;;;;;5058144;28;20033;-61
2023/04/26 09:04:47;;;;;;;4.45;2.20;;;9.50;73.60;;;;;;5056658;28;20107;-61
2023/04/26 09:07:32;;;;;;;5.38;2.05;;;9.70;76.40;;;;;;5054426;28;20040;-60
2023/04/26 09:09:59;;;;;;;3.45;1.30;;;9.80;75.90;;;;;;5035761;28;20048;-61
2023/04/26 09:12:25;;;;;;;2.80;1.27;;;9.80;75.50;;;;;;5057003;28;20397;-59
2023/04/26 09:14:52;;;;;;;6.45;1.50;;;9.80;75.00;;;;;;5055772;28;20041;-60
2023/04/26 09:17:29;;;;;;;4.22;1.35;;;9.90;74.00;;;;;;5051931;28;20566;-60
2023/04/26 09:19:56;;;;;;;4.72;1.60;;;10.00;74.40;;;;;;5058732;28;20063;-60
2023/04/26 09:22:32;;;;;;;3.67;1.52;;;10.40;75.30;;;;;;5051353;28;20025;-60
2023/04/26 09:25:04;;;;;;;4.05;1.33;;;10.70;72.10;;;;;;5058383;28;20052;-60
2023/04/26 09:27:38;;;;;;;3.20;1.00;;;10.90;72.80;;;;;;5060389;28;20115;-60
2023/04/26 09:30:08;;;;;;;3.05;1.05;;;10.90;72.10;;;;;;5059402;28;20040;-60
2023/04/26 09:32:57;;;;;;;2.67;1.50;;;10.70;68.90;;;;;;5058700;28;20452;-60
2023/04/26 09:35:37;;;;;;;5.88;1.00;;;10.50;69.50;;;;;;5057632;28;20033;-60
2023/04/26 09:38:15;;;;;;;2.33;1.27;;;10.10;72.00;;;;;;5058984;28;20424;-59
2023/04/26 09:40:49;;;;;;;4.25;1.60;;;9.80;70.90;;;;;;5057523;28;20032;-59
2023/04/26 09:43:19;;;;;;;3.70;1.73;;;9.60;73.10;;;;;;5057896;28;20017;-60
2023/04/26 09:45:45;;;;;;;3.67;1.20;;;9.60;74.00;;;;;;5061703;28;20039;-60
2023/04/26 09:48:24;;;;;;;4.20;1.52;;;9.70;75.10;;;;;;5059047;28;20024;-60
2023/04/26 09:50:55;;;;;;;5.07;1.77;;;10.00;74.90;;;;;;5057758;28;20047;-59
2023/04/26 09:53:39;;;;;;;2.92;1.75;;;10.50;71.10;;;;;;5043908;28;20400;-60
2023/04/26 09:56:13;;;;;;;2.55;1.88;;;11.30;67.30;;;;;;5056784;28;20036;-59
2023/04/26 09:59:04;;;;;;;7.30;1.38;;;11.90;67.80;;;;;;5057196;28;20040;-62
2023/04/26 10:01:30;;;;;;;6.90;1.70;;;12.30;66.50;;;;;;5058677;28;20025;-57
2023/04/26 10:03:56;;;;;;;3.55;1.63;;;12.30;64.30;;;;;;5057454;28;20044;-59
2023/04/26 10:06:22;;;;;;;2.25;1.02;;;12.50;66.50;;;;;;5050228;28;20048;-59
2023/04/26 10:08:48;;;;;;;2.83;1.35;;;12.90;60.30;;;;;;5057454;28;20535;-59
2023/04/26 10:11:14;;;;;;;4.05;1.13;;;13.70;59.20;;;;;;5054607;28;20033;-59
2023/04/26 10:13:41;;;;;;;3.42;1.17;;;14.10;58.20;;;;;;5058044;28;20036;-59
2023/04/26 10:16:08;;;;;;;1.77;1.08;;;14.10;56.80;;;;;;5060706;28;20386;-57
2023/04/26 10:18:34;;;;;;;12.85;1.40;;;13.60;58.70;;;;;;5062303;28;20033;-58
2023/04/26 10:21:27;;;;;;;4.97;1.55;;;13.00;59.90;;;;;;5052438;28;20025;-57
2023/04/26 10:23:53;;;;;;;5.85;1.98;;;12.70;61.70;;;;;;5050880;28;20091;-58
2023/04/26 10:26:56;;;;;;;3.05;0.90;;;12.30;61.40;;;;;;5057342;28;20021;-58
2023/04/26 10:29:45;;;;;;;3.60;1.65;;;11.90;60.00;;;;;;5057124;28;20120;-58
2023/04/26 10:32:15;;;;;;;1.83;1.20;;;11.80;59.60;;;;;;5056383;28;20060;-58
2023/04/26 10:34:41;;;;;;;7.10;1.20;;;11.70;61.10;;;;;;5042168;28;20062;-57
2023/04/26 10:37:14;;;;;;;2.80;1.30;;;11.70;62.70;;;;;;5035823;28;20032;-60
2023/04/26 10:39:42;;;;;;;3.97;1.23;;;11.60;61.50;;;;;;5055528;28;20035;-60
2023/04/26 10:42:22;;;;;;;2.03;1.10;;;11.40;61.40;;;;;;5054356;28;20572;-59
2023/04/26 10:44:49;;;;;;;2.28;1.00;;;11.20;61.80;;;;;;5058687;28;20021;-60
2023/04/26 10:47:28;;;;;;;3.13;1.10;;;11.10;61.10;;;;;;5056451;28;20424;-59
2023/04/26 10:50:05;;;;;;;4.07;2.10;;;10.80;62.80;;;;;;5054387;28;20059;-58
2023/04/26 10:52:30;;;;;;;3.40;1.75;;;10.80;64.10;;;;;;5041643;28;20543;-58
2023/04/26 10:54:57;;;;;;;3.60;1.10;;;11.00;62.90;;;;;;5053933;28;20028;-58
2023/04/26 10:57:53;;;;;;;4.03;1.75;;;11.40;62.30;;;;;;5057646;28;20036;-58
2023/04/26 11:00:27;;;;;;;8.27;1.92;;;11.50;60.50;;;;;;5059772;28;20029;-58
2023/04/26 11:03:04;;;;;;;3.38;1.30;;;11.50;61.20;;;;;;5058220;28;20032;-59
2023/04/26 11:05:36;;;;;;;2.75;1.20;;;11.60;63.90;;;;;;5059335;28;20497;-57
2023/04/26 11:08:05;;;;;;;2.30;1.42;;;11.60;61.00;;;;;;5056427;28;20037;-58
2023/04/26 11:10:30;;;;;;;2.42;1.20;;;11.50;60.00;;;;;;5057910;28;20048;-58
2023/04/26 11:13:02;;;;;;;2.83;1.00;;;11.20;58.90;;;;;;5061161;28;20029;-58
2023/04/26 11:15:29;;;;;;;2.75;1.30;;;11.30;58.90;;;;;;5056134;28;20031;-58
2023/04/26 11:17:55;;;;;;;5.93;1.95;;;11.40;61.50;;;;;;5057397;28;20370;-58
2023/04/26 11:20:21;;;;;;;1.98;1.20;;;11.40;58.50;;;;;;5056793;28;20043;-59
2023/04/26 11:22:46;;;;;;;3.67;1.08;;;11.50;59.60;;;;;;5058476;28;20028;-59
2023/04/26 11:25:13;;;;;;;3.88;1.73;;;11.50;59.00;;;;;;5054155;28;20059;-59
2023/04/26 11:27:41;;;;;;;3.20;1.20;;;11.70;58.00;;;;;;5056649;28;20029;-59
2023/04/26 11:30:08;;;;;;;4.43;1.23;;;11.90;57.60;;;;;;5056693;28;20044;-59
2023/04/26 11:32:34;;;;;;;2.90;1.20;;;12.30;60.10;;;;;;5057793;28;20028;-59
2023/04/26 11:35:00;;;;;;;2.65;1.23;;;12.60;57.60;;;;;;5052358;28;20032;-57
2023/04/26 11:37:26;;;;;;;2.78;1.38;;;12.70;58.30;;;;;;5055648;28;20039;-58
2023/04/26 11:39:51;;;;;;;1.65;1.10;;;12.90;58.30;;;;;;5054575;28;20039;-58
2023/04/26 11:42:23;;;;;;;3.53;1.40;;;12.50;58.40;;;;;;5059297;28;20398;-59
2023/04/26 11:44:50;;;;;;;4.88;1.63;;;12.20;58.90;;;;;;5056339;28;20036;-59
2023/04/26 11:47:17;;;;;;;3.90;1.20;;;12.20;59.00;;;;;;5061464;28;20032;-60
2023/04/26 11:49:43;;;;;;;3.13;1.42;;;12.20;59.70;;;;;;5056972;28;20029;-60
2023/04/26 11:52:09;;;;;;;7.40;1.30;;;12.40;57.70;;;;;;5058709;28;20063;-58
2023/04/26 11:54:36;;;;;;;2.53;1.33;;;12.60;56.20;;;;;;5059508;28;20032;-59
2023/04/26 11:57:20;;;;;;;4.90;1.50;;;12.90;58.70;;;;;;5056216;28;20428;-59
2023/04/26 11:59:45;;;;;;;3.38;1.38;;;13.10;57.00;;;;;;5058012;28;20136;-59
2023/04/26 12:02:11;;;;;;;1.02;0.85;;;13.00;56.90;;;;;;5058717;28;20540;-58
2023/04/26 12:04:39;;;;;;;6.90;1.88;;;13.10;56.70;;;;;;5054526;28;20494;-60
2023/04/26 12:07:05;;;;;;;4.43;1.73;;;13.30;58.10;;;;;;5059933;28;20025;-60
2023/04/26 12:09:31;;;;;;;4.68;1.70;;;13.40;56.80;;;;;;5056218;28;20099;-58
2023/04/26 12:12:05;;;;;;;3.67;1.58;;;13.50;56.30;;;;;;5056211;28;20524;-60
2023/04/26 12:14:37;;;;;;;3.75;1.45;;;13.40;56.50;;;;;;5054732;28;20029;-59
2023/04/26 12:17:05;;;;;;;5.28;1.27;;;13.40;56.20;;;;;;5057121;28;20029;-58
2023/04/26 12:19:33;;;;;;;1.90;1.20;;;13.60;55.40;;;;;;5056788;28;20043;-59
2023/04/26 12:21:59;;;;;;;3.88;1.40;;;13.60;56.40;;;;;;5057038;28;20029;-59
2023/04/26 12:24:29;;;;;;;1.95;1.20;;;13.80;55.50;;;;;;5056105;28;20092;-59
2023/04/26 12:26:54;;;;;;;3.33;1.15;;;13.60;54.70;;;;;;5059336;28;20507;-58
2023/04/26 12:29:20;;;;;;;2.30;1.45;;;13.60;55.50;;;;;;5055238;28;20037;-60
2023/04/26 12:31:46;;;;;;;4.55;1.48;;;13.50;57.00;;;;;;5035035;28;20187;-60
2023/04/26 12:34:12;;;;;;;1.90;1.40;;;13.50;56.30;;;;;;5039001;28;20032;-60
2023/04/26 12:36:40;;;;;;;2.58;1.35;;;13.50;56.60;;;;;;5056556;28;20060;-60
2023/04/26 12:39:06;;;;;;;2.63;1.50;;;13.40;55.20;;;;;;5053479;28;20400;-60
2023/04/26 12:41:31;;;;;;;2.83;1.10;;;13.50;57.40;;;;;;5054828;28;20037;-61
2023/04/26 12:46:33;;;;;;;3.75;1.40;;;13.40;58.40;;;;;;5948486;22;21022;-58
2023/04/26 12:48:58;;;;;;;4.55;1.45;;;13.50;58.60;;;;;;5085008;28;20035;-59
2023/04/26 12:51:24;;;;;;;2.95;1.30;;;13.60;56.00;;;;;;5085683;28;20725;-58
2023/04/26 12:53:50;;;;;;;4.63;1.80;;;13.80;56.30;;;;;;5087329;28;20062;-58
2023/04/26 12:56:16;;;;;;;4.38;1.40;;;13.80;57.30;;;;;;5085597;28;20039;-60